sensor_id;sensor_type;location;lat;lon;timestamp;temperature;humidity
43679;DHT22;29279;50.858;4.392;2023-07-22T00:02:06;18.20;97.50
43679;DHT22;29279;50.858;4.392;2023-07-22T00:04:31;18.10;97.40
43679;DHT22;29279;50.858;4.392;2023-07-22T00:06:57;18.00;97.90
43679;DHT22;29279;50.858;4.392;2023-07-22T00:09:22;18.00;97.90
43679;DHT22;29279;50.858;4.392;2023-07-22T00:11:49;17.90;98.20
43679;DHT22;29279;50.858;4.392;2023-07-22T00:14:15;17.70;98.60
43679;DHT22;29279;50.858;4.392;2023-07-22T00:16:41;17.60;99.10
43679;DHT22;29279;50.858;4.392;2023-07-22T00:19:07;17.60;99.30
43679;DHT22;29279;50.858;4.392;2023-07-22T00:21:33;17.60;99.20
43679;DHT22;29279;50.858;4.392;2023-07-22T00:24:00;17.60;99.20
43679;DHT22;29279;50.858;4.392;2023-07-22T00:26:26;17.50;99.40
43679;DHT22;29279;50.858;4.392;2023-07-22T00:28:51;17.40;99.90
43679;DHT22;29279;50.858;4.392;2023-07-22T00:31:17;17.40;99.90
43679;DHT22;29279;50.858;4.392;2023-07-22T00:33:43;17.40;99.90
43679;DHT22;29279;50.858;4.392;2023-07-22T00:36:08;17.40;99.90
43679;DHT22;29279;50.858;4.392;2023-07-22T00:38:34;17.40;99.90
43679;DHT22;29279;50.858;4.392;2023-07-22T00:41:00;17.30;99.90
43679;DHT22;29279;50.858;4.392;2023-07-22T00:43:25;17.20;99.90
43679;DHT22;29279;50.858;4.392;2023-07-22T00:45:52;17.30;99.90
43679;DHT22;29279;50.858;4.392;2023-07-22T00:48:17;17.10;99.90
43679;DHT22;29279;50.858;4.392;2023-07-22T00:50:44;17.10;99.90
43679;DHT22;29279;50.858;4.392;2023-07-22T00:53:10;17.10;99.90
43679;DHT22;29279;50.858;4.392;2023-07-22T00:55:37;17.00;99.90
43679;DHT22;29279;50.858;4.392;2023-07-22T00:58:04;16.90;99.90
43679;DHT22;29279;50.858;4.392;2023-07-22T01:00:30;16.90;99.90
43679;DHT22;29279;50.858;4.392;2023-07-22T01:02:58;17.00;99.90
43679;DHT22;29279;50.858;4.392;2023-07-22T01:05:24;16.90;99.90
43679;DHT22;29279;50.858;4.392;2023-07-22T01:07:51;16.90;99.90
43679;DHT22;29279;50.858;4.392;2023-07-22T01:10:17;16.90;99.90
43679;DHT22;29279;50.858;4.392;2023-07-22T01:12:43;16.80;99.90
43679;DHT22;29279;50.858;4.392;2023-07-22T01:15:09;16.90;99.90
43679;DHT22;29279;50.858;4.392;2023-07-22T01:17:37;17.00;99.90
43679;DHT22;29279;50.858;4.392;2023-07-22T01:20:03;17.00;99.90
43679;DHT22;29279;50.858;4.392;2023-07-22T01:22:30;17.00;99.90
43679;DHT22;29279;50.858;4.392;2023-07-22T01:24:56;17.00;99.90
43679;DHT22;29279;50.858;4.392;2023-07-22T01:27:23;16.70;99.90
43679;DHT22;29279;50.858;4.392;2023-07-22T01:29:51;16.50;99.90
43679;DHT22;29279;50.858;4.392;2023-07-22T01:32:17;16.50;99.90
43679;DHT22;29279;50.858;4.392;2023-07-22T01:34:43;16.40;99.90
43679;DHT22;29279;50.858;4.392;2023-07-22T01:37:08;16.60;99.90
43679;DHT22;29279;50.858;4.392;2023-07-22T01:39:35;16.60;99.90
43679;DHT22;29279;50.858;4.392;2023-07-22T01:42:01;16.70;99.90
43679;DHT22;29279;50.858;4.392;2023-07-22T01:44:27;16.60;99.90
43679;DHT22;29279;50.858;4.392;2023-07-22T01:46:53;16.50;99.90
43679;DHT22;29279;50.858;4.392;2023-07-22T01:49:19;16.50;99.90
43679;DHT22;29279;50.858;4.392;2023-07-22T01:51:44;16.40;99.90
43679;DHT22;29279;50.858;4.392;2023-07-22T01:54:11;16.30;99.90
43679;DHT22;29279;50.858;4.392;2023-07-22T01:56:37;16.30;99.90
43679;DHT22;29279;50.858;4.392;2023-07-22T01:59:04;16.20;99.90
43679;DHT22;29279;50.858;4.392;2023-07-22T02:01:30;16.10;99.90
43679;DHT22;29279;50.858;4.392;2023-07-22T02:03:55;16.10;99.90
43679;DHT22;29279;50.858;4.392;2023-07-22T02:06:22;16.10;99.90
43679;DHT22;29279;50.858;4.392;2023-07-22T02:08:47;16.10;99.90
43679;DHT22;29279;50.858;4.392;2023-07-22T02:11:13;16.00;99.90
43679;DHT22;29279;50.858;4.392;2023-07-22T02:13:39;15.90;99.90
43679;DHT22;29279;50.858;4.392;2023-07-22T02:16:05;15.80;99.90
43679;DHT22;29279;50.858;4.392;2023-07-22T02:18:30;15.80;99.90
43679;DHT22;29279;50.858;4.392;2023-07-22T02:20:57;15.80;99.90
43679;DHT22;29279;50.858;4.392;2023-07-22T02:23:23;15.80;99.90
43679;DHT22;29279;50.858;4.392;2023-07-22T02:25:53;15.80;99.90
43679;DHT22;29279;50.858;4.392;2023-07-22T02:28:19;15.80;99.90
43679;DHT22;29279;50.858;4.392;2023-07-22T02:30:47;15.80;99.90
43679;DHT22;29279;50.858;4.392;2023-07-22T02:33:13;15.80;99.90
43679;DHT22;29279;50.858;4.392;2023-07-22T02:35:40;15.80;99.90
43679;DHT22;29279;50.858;4.392;2023-07-22T02:38:06;15.70;99.90
43679;DHT22;29279;50.858;4.392;2023-07-22T02:40:35;15.60;99.90
43679;DHT22;29279;50.858;4.392;2023-07-22T02:43:00;15.70;99.90
43679;DHT22;29279;50.858;4.392;2023-07-22T02:45:26;15.70;99.90
43679;DHT22;29279;50.858;4.392;2023-07-22T02:47:52;15.80;99.90
43679;DHT22;29279;50.858;4.392;2023-07-22T02:50:18;15.70;99.90
43679;DHT22;29279;50.858;4.392;2023-07-22T02:52:44;15.70;99.90
43679;DHT22;29279;50.858;4.392;2023-07-22T02:55:18;15.70;99.90
43679;DHT22;29279;50.858;4.392;2023-07-22T02:57:45;15.60;99.90
43679;DHT22;29279;50.858;4.392;2023-07-22T03:00:15;15.50;99.90
43679;DHT22;29279;50.858;4.392;2023-07-22T03:02:52;15.50;99.90
43679;DHT22;29279;50.858;4.392;2023-07-22T03:05:19;15.40;99.90
43679;DHT22;29279;50.858;4.392;2023-07-22T03:07:45;15.40;99.90
43679;DHT22;29279;50.858;4.392;2023-07-22T03:10:10;15.50;99.90
43679;DHT22;29279;50.858;4.392;2023-07-22T03:12:37;15.50;99.90
43679;DHT22;29279;50.858;4.392;2023-07-22T03:15:03;15.50;99.90
43679;DHT22;29279;50.858;4.392;2023-07-22T03:17:34;15.50;99.90
43679;DHT22;29279;50.858;4.392;2023-07-22T03:20:01;15.50;99.90
43679;DHT22;29279;50.858;4.392;2023-07-22T03:22:29;15.40;99.90
43679;DHT22;29279;50.858;4.392;2023-07-22T03:24:55;15.40;99.90
43679;DHT22;29279;50.858;4.392;2023-07-22T03:27:20;15.40;99.90
43679;DHT22;29279;50.858;4.392;2023-07-22T03:29:46;15.40;99.90
43679;DHT22;29279;50.858;4.392;2023-07-22T03:32:12;15.40;99.90
43679;DHT22;29279;50.858;4.392;2023-07-22T03:34:38;15.40;99.90
43679;DHT22;29279;50.858;4.392;2023-07-22T03:37:03;15.60;99.90
43679;DHT22;29279;50.858;4.392;2023-07-22T03:39:29;15.60;99.90
43679;DHT22;29279;50.858;4.392;2023-07-22T03:41:55;15.60;99.90
43679;DHT22;29279;50.858;4.392;2023-07-22T03:44:20;15.60;99.90
43679;DHT22;29279;50.858;4.392;2023-07-22T03:46:46;15.40;99.90
43679;DHT22;29279;50.858;4.392;2023-07-22T03:49:11;15.40;99.90
43679;DHT22;29279;50.858;4.392;2023-07-22T03:51:37;15.40;99.90
43679;DHT22;29279;50.858;4.392;2023-07-22T03:54:03;15.40;99.90
43679;DHT22;29279;50.858;4.392;2023-07-22T03:56:28;15.20;99.90
43679;DHT22;29279;50.858;4.392;2023-07-22T03:58:54;15.20;99.90
43679;DHT22;29279;50.858;4.392;2023-07-22T04:01:20;15.30;99.90
43679;DHT22;29279;50.858;4.392;2023-07-22T04:03:45;15.30;99.90
43679;DHT22;29279;50.858;4.392;2023-07-22T04:06:11;15.40;99.90
43679;DHT22;29279;50.858;4.392;2023-07-22T04:08:37;15.50;99.90
43679;DHT22;29279;50.858;4.392;2023-07-22T04:11:03;15.50;99.90
43679;DHT22;29279;50.858;4.392;2023-07-22T04:13:28;15.40;99.90
43679;DHT22;29279;50.858;4.392;2023-07-22T04:15:54;15.40;99.90
43679;DHT22;29279;50.858;4.392;2023-07-22T04:18:20;15.40;99.90
43679;DHT22;29279;50.858;4.392;2023-07-22T04:20:47;15.30;99.90
43679;DHT22;29279;50.858;4.392;2023-07-22T04:23:15;15.30;99.90
43679;DHT22;29279;50.858;4.392;2023-07-22T04:25:42;15.30;99.90
43679;DHT22;29279;50.858;4.392;2023-07-22T04:28:09;15.20;99.90
43679;DHT22;29279;50.858;4.392;2023-07-22T04:30:38;15.20;99.90
43679;DHT22;29279;50.858;4.392;2023-07-22T04:33:05;15.10;99.90
43679;DHT22;29279;50.858;4.392;2023-07-22T04:35:32;15.20;99.90
43679;DHT22;29279;50.858;4.392;2023-07-22T04:37:58;15.20;99.90
43679;DHT22;29279;50.858;4.392;2023-07-22T04:40:24;15.20;99.90
43679;DHT22;29279;50.858;4.392;2023-07-22T04:42:50;15.20;99.90
43679;DHT22;29279;50.858;4.392;2023-07-22T04:45:17;15.40;99.90
43679;DHT22;29279;50.858;4.392;2023-07-22T04:47:43;15.30;99.90
43679;DHT22;29279;50.858;4.392;2023-07-22T04:50:12;15.40;99.90
43679;DHT22;29279;50.858;4.392;2023-07-22T04:52:38;15.50;99.90
43679;DHT22;29279;50.858;4.392;2023-07-22T04:55:04;15.60;99.90
43679;DHT22;29279;50.858;4.392;2023-07-22T04:57:38;15.70;99.90
43679;DHT22;29279;50.858;4.392;2023-07-22T05:00:07;15.60;99.90
43679;DHT22;29279;50.858;4.392;2023-07-22T05:02:35;15.60;99.90
43679;DHT22;29279;50.858;4.392;2023-07-22T05:05:00;15.60;99.90
43679;DHT22;29279;50.858;4.392;2023-07-22T05:07:26;15.60;99.90
43679;DHT22;29279;50.858;4.392;2023-07-22T05:09:52;15.60;99.90
43679;DHT22;29279;50.858;4.392;2023-07-22T05:12:18;15.50;99.90
43679;DHT22;29279;50.858;4.392;2023-07-22T05:14:48;15.50;99.90
43679;DHT22;29279;50.858;4.392;2023-07-22T05:17:14;15.40;99.90
43679;DHT22;29279;50.858;4.392;2023-07-22T05:19:40;15.40;99.90
43679;DHT22;29279;50.858;4.392;2023-07-22T05:22:06;15.30;99.90
43679;DHT22;29279;50.858;4.392;2023-07-22T05:24:32;15.30;99.90
43679;DHT22;29279;50.858;4.392;2023-07-22T05:26:58;15.20;99.90
43679;DHT22;29279;50.858;4.392;2023-07-22T05:29:24;15.30;99.90
43679;DHT22;29279;50.858;4.392;2023-07-22T05:31:49;15.30;99.90
43679;DHT22;29279;50.858;4.392;2023-07-22T05:34:15;15.30;99.90
43679;DHT22;29279;50.858;4.392;2023-07-22T05:36:40;15.40;99.90
43679;DHT22;29279;50.858;4.392;2023-07-22T05:39:06;15.50;99.90
43679;DHT22;29279;50.858;4.392;2023-07-22T05:41:35;15.60;99.90
43679;DHT22;29279;50.858;4.392;2023-07-22T05:44:01;15.60;99.90
43679;DHT22;29279;50.858;4.392;2023-07-22T05:46:26;15.70;99.90
43679;DHT22;29279;50.858;4.392;2023-07-22T05:48:52;15.70;99.90
43679;DHT22;29279;50.858;4.392;2023-07-22T05:51:18;15.80;99.90
43679;DHT22;29279;50.858;4.392;2023-07-22T05:53:44;16.00;99.90
43679;DHT22;29279;50.858;4.392;2023-07-22T05:56:10;16.10;99.90
43679;DHT22;29279;50.858;4.392;2023-07-22T05:58:36;16.20;99.90
43679;DHT22;29279;50.858;4.392;2023-07-22T06:01:02;16.20;99.90
43679;DHT22;29279;50.858;4.392;2023-07-22T06:03:27;16.20;99.90
43679;DHT22;29279;50.858;4.392;2023-07-22T06:05:53;16.40;99.90
43679;DHT22;29279;50.858;4.392;2023-07-22T06:08:19;16.40;99.90
43679;DHT22;29279;50.858;4.392;2023-07-22T06:10:45;16.60;99.90
43679;DHT22;29279;50.858;4.392;2023-07-22T06:13:11;16.70;99.90
43679;DHT22;29279;50.858;4.392;2023-07-22T06:15:36;16.80;99.90
43679;DHT22;29279;50.858;4.392;2023-07-22T06:18:02;16.80;99.90
43679;DHT22;29279;50.858;4.392;2023-07-22T06:20:28;16.80;99.90
43679;DHT22;29279;50.858;4.392;2023-07-22T06:22:55;16.80;99.90
43679;DHT22;29279;50.858;4.392;2023-07-22T06:25:20;16.90;99.90
43679;DHT22;29279;50.858;4.392;2023-07-22T06:27:46;16.90;99.90
43679;DHT22;29279;50.858;4.392;2023-07-22T06:30:12;16.80;99.90
43679;DHT22;29279;50.858;4.392;2023-07-22T06:32:38;16.90;99.90
43679;DHT22;29279;50.858;4.392;2023-07-22T06:35:04;16.80;99.90
43679;DHT22;29279;50.858;4.392;2023-07-22T06:37:30;16.80;99.90
43679;DHT22;29279;50.858;4.392;2023-07-22T06:39:56;16.80;99.90
43679;DHT22;29279;50.858;4.392;2023-07-22T06:42:21;16.90;99.90
43679;DHT22;29279;50.858;4.392;2023-07-22T06:44:47;16.90;99.90
43679;DHT22;29279;50.858;4.392;2023-07-22T06:47:13;16.90;99.90
43679;DHT22;29279;50.858;4.392;2023-07-22T06:49:39;16.80;99.90
43679;DHT22;29279;50.858;4.392;2023-07-22T06:52:06;16.90;99.90
43679;DHT22;29279;50.858;4.392;2023-07-22T06:54:33;17.00;99.90
43679;DHT22;29279;50.858;4.392;2023-07-22T06:56:59;16.90;99.90
43679;DHT22;29279;50.858;4.392;2023-07-22T06:59:25;16.90;99.90
43679;DHT22;29279;50.858;4.392;2023-07-22T07:01:52;16.90;99.90
43679;DHT22;29279;50.858;4.392;2023-07-22T07:04:17;17.00;99.90
43679;DHT22;29279;50.858;4.392;2023-07-22T07:06:43;17.00;99.90
43679;DHT22;29279;50.858;4.392;2023-07-22T07:09:08;17.20;99.90
43679;DHT22;29279;50.858;4.392;2023-07-22T07:11:34;17.20;99.90
43679;DHT22;29279;50.858;4.392;2023-07-22T07:14:00;17.40;99.90
43679;DHT22;29279;50.858;4.392;2023-07-22T07:16:28;17.40;99.90
43679;DHT22;29279;50.858;4.392;2023-07-22T07:18:54;17.40;99.90
43679;DHT22;29279;50.858;4.392;2023-07-22T07:21:21;17.50;99.90
43679;DHT22;29279;50.858;4.392;2023-07-22T07:23:48;17.50;99.90
43679;DHT22;29279;50.858;4.392;2023-07-22T07:26:14;17.50;99.90
43679;DHT22;29279;50.858;4.392;2023-07-22T07:28:40;17.70;99.90
43679;DHT22;29279;50.858;4.392;2023-07-22T07:31:06;17.90;99.90
43679;DHT22;29279;50.858;4.392;2023-07-22T07:33:33;18.00;99.90
43679;DHT22;29279;50.858;4.392;2023-07-22T07:35:59;17.90;99.90
43679;DHT22;29279;50.858;4.392;2023-07-22T07:38:24;17.90;99.90
43679;DHT22;29279;50.858;4.392;2023-07-22T07:40:55;17.80;99.90
43679;DHT22;29279;50.858;4.392;2023-07-22T07:43:21;17.90;99.90
43679;DHT22;29279;50.858;4.392;2023-07-22T07:45:47;18.00;99.90
43679;DHT22;29279;50.858;4.392;2023-07-22T07:48:13;18.00;99.90
43679;DHT22;29279;50.858;4.392;2023-07-22T07:50:38;18.00;99.90
43679;DHT22;29279;50.858;4.392;2023-07-22T07:53:04;18.00;99.90
43679;DHT22;29279;50.858;4.392;2023-07-22T07:55:29;18.00;99.90
43679;DHT22;29279;50.858;4.392;2023-07-22T07:57:55;18.00;99.90
43679;DHT22;29279;50.858;4.392;2023-07-22T08:00:21;18.10;99.90
43679;DHT22;29279;50.858;4.392;2023-07-22T08:02:47;18.30;99.90
43679;DHT22;29279;50.858;4.392;2023-07-22T08:05:12;18.20;99.90
43679;DHT22;29279;50.858;4.392;2023-07-22T08:07:38;18.40;99.90
43679;DHT22;29279;50.858;4.392;2023-07-22T08:10:05;18.40;99.90
43679;DHT22;29279;50.858;4.392;2023-07-22T08:12:32;18.40;99.90
43679;DHT22;29279;50.858;4.392;2023-07-22T08:14:58;18.40;99.90
43679;DHT22;29279;50.858;4.392;2023-07-22T08:17:24;18.60;99.90
43679;DHT22;29279;50.858;4.392;2023-07-22T08:19:50;18.50;99.90
43679;DHT22;29279;50.858;4.392;2023-07-22T08:22:16;18.60;99.90
43679;DHT22;29279;50.858;4.392;2023-07-22T08:24:41;18.80;99.90
43679;DHT22;29279;50.858;4.392;2023-07-22T08:27:07;18.80;99.90
43679;DHT22;29279;50.858;4.392;2023-07-22T08:29:33;18.90;99.90
43679;DHT22;29279;50.858;4.392;2023-07-22T08:31:58;19.00;99.90
43679;DHT22;29279;50.858;4.392;2023-07-22T08:34:24;19.20;99.90
43679;DHT22;29279;50.858;4.392;2023-07-22T08:36:50;19.40;99.90
43679;DHT22;29279;50.858;4.392;2023-07-22T08:39:15;19.30;99.90
43679;DHT22;29279;50.858;4.392;2023-07-22T08:41:48;19.30;99.90
43679;DHT22;29279;50.858;4.392;2023-07-22T08:44:18;19.20;99.90
43679;DHT22;29279;50.858;4.392;2023-07-22T08:46:45;19.20;99.90
43679;DHT22;29279;50.858;4.392;2023-07-22T08:49:11;19.20;99.90
43679;DHT22;29279;50.858;4.392;2023-07-22T08:51:38;19.10;99.90
43679;DHT22;29279;50.858;4.392;2023-07-22T08:54:05;19.10;99.90
43679;DHT22;29279;50.858;4.392;2023-07-22T08:56:31;19.20;99.90
43679;DHT22;29279;50.858;4.392;2023-07-22T08:58:58;19.30;99.90
43679;DHT22;29279;50.858;4.392;2023-07-22T09:01:24;19.40;99.90
43679;DHT22;29279;50.858;4.392;2023-07-22T09:03:50;19.50;99.90
43679;DHT22;29279;50.858;4.392;2023-07-22T09:06:19;19.70;99.90
43679;DHT22;29279;50.858;4.392;2023-07-22T09:08:45;19.90;99.90
43679;DHT22;29279;50.858;4.392;2023-07-22T09:11:11;20.00;99.90
43679;DHT22;29279;50.858;4.392;2023-07-22T09:13:38;20.10;99.90
43679;DHT22;29279;50.858;4.392;2023-07-22T09:16:06;20.20;99.90
43679;DHT22;29279;50.858;4.392;2023-07-22T09:18:34;20.40;99.90
43679;DHT22;29279;50.858;4.392;2023-07-22T09:21:00;20.60;99.90
43679;DHT22;29279;50.858;4.392;2023-07-22T09:23:36;20.70;99.90
43679;DHT22;29279;50.858;4.392;2023-07-22T09:26:13;20.90;99.90
43679;DHT22;29279;50.858;4.392;2023-07-22T09:28:56;21.10;99.90
43679;DHT22;29279;50.858;4.392;2023-07-22T09:31:26;20.90;99.90
43679;DHT22;29279;50.858;4.392;2023-07-22T09:33:53;20.80;99.90
43679;DHT22;29279;50.858;4.392;2023-07-22T09:36:22;20.90;99.90
43679;DHT22;29279;50.858;4.392;2023-07-22T09:39:14;21.00;99.90
43679;DHT22;29279;50.858;4.392;2023-07-22T09:41:42;21.10;99.90
43679;DHT22;29279;50.858;4.392;2023-07-22T09:44:10;21.20;99.90
43679;DHT22;29279;50.858;4.392;2023-07-22T09:46:37;21.20;99.90
43679;DHT22;29279;50.858;4.392;2023-07-22T09:49:04;21.30;99.90
43679;DHT22;29279;50.858;4.392;2023-07-22T09:51:38;21.30;99.90
43679;DHT22;29279;50.858;4.392;2023-07-22T09:54:04;21.40;99.90
43679;DHT22;29279;50.858;4.392;2023-07-22T09:56:31;21.40;99.90
43679;DHT22;29279;50.858;4.392;2023-07-22T09:59:04;21.50;99.90
43679;DHT22;29279;50.858;4.392;2023-07-22T10:01:32;21.60;99.90
43679;DHT22;29279;50.858;4.392;2023-07-22T10:03:59;21.90;99.00
43679;DHT22;29279;50.858;4.392;2023-07-22T10:06:29;21.80;97.70
43679;DHT22;29279;50.858;4.392;2023-07-22T10:09:05;21.80;97.40
43679;DHT22;29279;50.858;4.392;2023-07-22T10:11:33;21.80;97.30
43679;DHT22;29279;50.858;4.392;2023-07-22T10:14:01;22.10;97.40
43679;DHT22;29279;50.858;4.392;2023-07-22T10:16:28;22.30;96.60
43679;DHT22;29279;50.858;4.392;2023-07-22T10:18:54;22.40;96.00
43679;DHT22;29279;50.858;4.392;2023-07-22T10:21:21;22.50;96.00
43679;DHT22;29279;50.858;4.392;2023-07-22T10:23:47;22.50;95.20
43679;DHT22;29279;50.858;4.392;2023-07-22T10:26:17;22.40;94.30
43679;DHT22;29279;50.858;4.392;2023-07-22T10:28:44;22.50;94.20
43679;DHT22;29279;50.858;4.392;2023-07-22T10:31:10;22.70;94.00
43679;DHT22;29279;50.858;4.392;2023-07-22T10:33:36;22.80;93.40
43679;DHT22;29279;50.858;4.392;2023-07-22T10:36:04;23.30;93.20
43679;DHT22;29279;50.858;4.392;2023-07-22T10:38:31;23.60;92.30
43679;DHT22;29279;50.858;4.392;2023-07-22T10:40:58;24.00;92.00
43679;DHT22;29279;50.858;4.392;2023-07-22T10:43:26;24.30;91.10
43679;DHT22;29279;50.858;4.392;2023-07-22T10:45:57;24.50;91.00
43679;DHT22;29279;50.858;4.392;2023-07-22T10:48:28;24.70;90.60
43679;DHT22;29279;50.858;4.392;2023-07-22T10:51:09;24.70;90.10
43679;DHT22;29279;50.858;4.392;2023-07-22T10:53:47;24.60;90.10
43679;DHT22;29279;50.858;4.392;2023-07-22T10:56:15;24.30;90.90
43679;DHT22;29279;50.858;4.392;2023-07-22T11:12:15;24.40;90.30
43679;DHT22;29279;50.858;4.392;2023-07-22T11:14:52;24.10;90.50
43679;DHT22;29279;50.858;4.392;2023-07-22T11:17:30;23.90;90.70
43679;DHT22;29279;50.858;4.392;2023-07-22T11:19:57;23.40;91.00
43679;DHT22;29279;50.858;4.392;2023-07-22T11:22:23;23.30;91.30
43679;DHT22;29279;50.858;4.392;2023-07-22T11:24:48;23.60;90.90
43679;DHT22;29279;50.858;4.392;2023-07-22T11:27:15;23.50;90.80
43679;DHT22;29279;50.858;4.392;2023-07-22T11:29:41;23.60;91.10
43679;DHT22;29279;50.858;4.392;2023-07-22T11:32:07;24.40;90.40
43679;DHT22;29279;50.858;4.392;2023-07-22T11:34:40;24.60;90.40
43679;DHT22;29279;50.858;4.392;2023-07-22T11:37:06;24.90;89.50
43679;DHT22;29279;50.858;4.392;2023-07-22T11:39:32;25.60;88.20
43679;DHT22;29279;50.858;4.392;2023-07-22T11:42:00;26.00;86.50
43679;DHT22;29279;50.858;4.392;2023-07-22T11:44:28;25.80;86.60
43679;DHT22;29279;50.858;4.392;2023-07-22T11:47:01;26.20;85.60
43679;DHT22;29279;50.858;4.392;2023-07-22T11:49:32;26.30;84.30
43679;DHT22;29279;50.858;4.392;2023-07-22T11:54:33;24.90;85.70
43679;DHT22;29279;50.858;4.392;2023-07-22T11:57:26;25.70;84.70
43679;DHT22;29279;50.858;4.392;2023-07-22T11:59:56;26.90;83.80
43679;DHT22;29279;50.858;4.392;2023-07-22T12:02:23;27.70;82.00
43679;DHT22;29279;50.858;4.392;2023-07-22T12:05:03;27.60;81.50
43679;DHT22;29279;50.858;4.392;2023-07-22T12:07:35;26.60;82.10
43679;DHT22;29279;50.858;4.392;2023-07-22T12:10:03;26.50;83.80
43679;DHT22;29279;50.858;4.392;2023-07-22T12:12:44;27.00;82.20
43679;DHT22;29279;50.858;4.392;2023-07-22T12:15:19;26.80;81.60
43679;DHT22;29279;50.858;4.392;2023-07-22T12:17:59;26.50;82.60
43679;DHT22;29279;50.858;4.392;2023-07-22T12:20:27;26.10;82.90
43679;DHT22;29279;50.858;4.392;2023-07-22T12:22:54;26.30;82.30
43679;DHT22;29279;50.858;4.392;2023-07-22T12:25:20;27.00;80.80
43679;DHT22;29279;50.858;4.392;2023-07-22T12:27:46;27.40;79.50
43679;DHT22;29279;50.858;4.392;2023-07-22T12:30:12;26.00;81.50
43679;DHT22;29279;50.858;4.392;2023-07-22T12:32:38;25.30;81.80
43679;DHT22;29279;50.858;4.392;2023-07-22T12:35:05;25.70;81.90
43679;DHT22;29279;50.858;4.392;2023-07-22T12:37:31;25.90;81.20
43679;DHT22;29279;50.858;4.392;2023-07-22T12:39:57;27.10;79.30
43679;DHT22;29279;50.858;4.392;2023-07-22T12:42:23;27.10;78.50
43679;DHT22;29279;50.858;4.392;2023-07-22T12:44:49;27.70;78.30
43679;DHT22;29279;50.858;4.392;2023-07-22T12:47:14;26.90;77.90
43679;DHT22;29279;50.858;4.392;2023-07-22T12:49:40;27.30;78.60
43679;DHT22;29279;50.858;4.392;2023-07-22T12:52:06;28.30;77.60
43679;DHT22;29279;50.858;4.392;2023-07-22T12:54:35;28.70;77.10
43679;DHT22;29279;50.858;4.392;2023-07-22T12:57:01;28.10;75.80
43679;DHT22;29279;50.858;4.392;2023-07-22T12:59:27;27.80;76.40
43679;DHT22;29279;50.858;4.392;2023-07-22T13:01:53;27.40;76.80
43679;DHT22;29279;50.858;4.392;2023-07-22T13:04:19;27.10;77.30
43679;DHT22;29279;50.858;4.392;2023-07-22T13:06:45;26.40;78.20
43679;DHT22;29279;50.858;4.392;2023-07-22T13:09:10;25.70;79.10
43679;DHT22;29279;50.858;4.392;2023-07-22T13:11:36;24.90;80.10
43679;DHT22;29279;50.858;4.392;2023-07-22T13:14:02;24.40;82.00
43679;DHT22;29279;50.858;4.392;2023-07-22T13:16:28;24.20;82.80
43679;DHT22;29279;50.858;4.392;2023-07-22T13:18:54;23.90;83.10
43679;DHT22;29279;50.858;4.392;2023-07-22T13:21:19;23.60;83.70
43679;DHT22;29279;50.858;4.392;2023-07-22T13:23:45;23.60;83.80
43679;DHT22;29279;50.858;4.392;2023-07-22T13:26:10;23.50;83.50
43679;DHT22;29279;50.858;4.392;2023-07-22T13:28:36;23.50;84.40
43679;DHT22;29279;50.858;4.392;2023-07-22T13:31:02;23.30;84.20
43679;DHT22;29279;50.858;4.392;2023-07-22T13:33:27;23.20;84.70
43679;DHT22;29279;50.858;4.392;2023-07-22T13:35:53;23.50;84.70
43679;DHT22;29279;50.858;4.392;2023-07-22T13:38:19;24.00;83.50
43679;DHT22;29279;50.858;4.392;2023-07-22T13:40:45;23.70;84.10
43679;DHT22;29279;50.858;4.392;2023-07-22T13:43:11;23.40;84.70
43679;DHT22;29279;50.858;4.392;2023-07-22T13:45:37;23.00;85.90
43679;DHT22;29279;50.858;4.392;2023-07-22T13:48:06;22.90;86.40
43679;DHT22;29279;50.858;4.392;2023-07-22T13:50:31;22.90;86.00
43679;DHT22;29279;50.858;4.392;2023-07-22T13:52:57;22.70;87.30
43679;DHT22;29279;50.858;4.392;2023-07-22T13:55:23;22.40;87.20
43679;DHT22;29279;50.858;4.392;2023-07-22T13:57:48;22.20;88.10
43679;DHT22;29279;50.858;4.392;2023-07-22T14:00:16;21.90;89.00
43679;DHT22;29279;50.858;4.392;2023-07-22T14:02:42;21.70;89.90
43679;DHT22;29279;50.858;4.392;2023-07-22T14:05:08;21.60;90.40
43679;DHT22;29279;50.858;4.392;2023-07-22T14:07:35;21.30;90.70
43679;DHT22;29279;50.858;4.392;2023-07-22T14:10:00;21.20;90.90
43679;DHT22;29279;50.858;4.392;2023-07-22T14:12:26;21.10;91.40
43679;DHT22;29279;50.858;4.392;2023-07-22T14:14:52;21.10;91.60
43679;DHT22;29279;50.858;4.392;2023-07-22T14:17:17;21.00;91.60
43679;DHT22;29279;50.858;4.392;2023-07-22T14:19:43;21.00;92.10
43679;DHT22;29279;50.858;4.392;2023-07-22T14:22:09;20.90;92.10
43679;DHT22;29279;50.858;4.392;2023-07-22T14:24:34;20.90;92.20
43679;DHT22;29279;50.858;4.392;2023-07-22T14:27:00;20.90;92.40
43679;DHT22;29279;50.858;4.392;2023-07-22T14:29:25;21.00;92.50
43679;DHT22;29279;50.858;4.392;2023-07-22T14:31:51;21.10;92.50
43679;DHT22;29279;50.858;4.392;2023-07-22T14:34:17;21.20;92.40
43679;DHT22;29279;50.858;4.392;2023-07-22T14:36:43;21.40;92.30
43679;DHT22;29279;50.858;4.392;2023-07-22T14:39:09;21.50;92.20
43679;DHT22;29279;50.858;4.392;2023-07-22T14:41:35;21.90;91.90
43679;DHT22;29279;50.858;4.392;2023-07-22T14:44:00;22.20;91.60
43679;DHT22;29279;50.858;4.392;2023-07-22T14:46:26;22.30;91.50
43679;DHT22;29279;50.858;4.392;2023-07-22T14:48:52;22.30;91.40
43679;DHT22;29279;50.858;4.392;2023-07-22T14:51:17;22.40;91.60
43679;DHT22;29279;50.858;4.392;2023-07-22T14:53:43;22.40;91.50
43679;DHT22;29279;50.858;4.392;2023-07-22T14:56:09;22.50;91.70
43679;DHT22;29279;50.858;4.392;2023-07-22T14:58:35;22.70;91.60
43679;DHT22;29279;50.858;4.392;2023-07-22T15:01:00;22.90;91.20
43679;DHT22;29279;50.858;4.392;2023-07-22T15:03:26;23.00;91.10
43679;DHT22;29279;50.858;4.392;2023-07-22T15:05:52;23.00;91.20
43679;DHT22;29279;50.858;4.392;2023-07-22T15:08:18;23.10;91.10
43679;DHT22;29279;50.858;4.392;2023-07-22T15:10:43;23.30;90.90
43679;DHT22;29279;50.858;4.392;2023-07-22T15:13:09;23.30;91.10
43679;DHT22;29279;50.858;4.392;2023-07-22T15:15:34;23.40;91.00
43679;DHT22;29279;50.858;4.392;2023-07-22T15:18:00;23.30;91.00
43679;DHT22;29279;50.858;4.392;2023-07-22T15:20:26;23.20;91.00
43679;DHT22;29279;50.858;4.392;2023-07-22T15:22:52;23.20;91.00
43679;DHT22;29279;50.858;4.392;2023-07-22T15:25:17;23.20;91.00
43679;DHT22;29279;50.858;4.392;2023-07-22T15:27:43;22.90;91.20
43679;DHT22;29279;50.858;4.392;2023-07-22T15:30:09;22.80;91.20
43679;DHT22;29279;50.858;4.392;2023-07-22T15:32:36;22.60;91.40
43679;DHT22;29279;50.858;4.392;2023-07-22T15:35:02;22.30;91.50
43679;DHT22;29279;50.858;4.392;2023-07-22T15:37:28;22.20;91.70
43679;DHT22;29279;50.858;4.392;2023-07-22T15:39:53;22.00;91.80
43679;DHT22;29279;50.858;4.392;2023-07-22T15:42:19;22.00;91.60
43679;DHT22;29279;50.858;4.392;2023-07-22T15:44:44;21.90;91.60